createdAt,value
2022-10-22T00:01:03.378Z,17.10
2022-10-22T00:03:31.439Z,17.24
2022-10-22T00:05:59.377Z,17.27
2022-10-22T00:08:27.264Z,17.30
2022-10-22T00:10:55.081Z,17.43
2022-10-22T00:13:24.687Z,17.40
2022-10-22T00:15:52.539Z,17.43
2022-10-22T00:18:20.356Z,17.39
2022-10-22T00:20:48.154Z,17.45
2022-10-22T00:23:15.969Z,17.38
2022-10-22T00:25:43.831Z,17.51
2022-10-22T00:28:12.589Z,17.44
2022-10-22T00:30:42.119Z,17.50
2022-10-22T00:33:10.023Z,17.50
2022-10-22T00:35:37.891Z,17.53
2022-10-22T00:38:06.191Z,17.57
2022-10-22T00:40:34.029Z,17.41
2022-10-22T00:43:01.894Z,17.45
2022-10-22T00:45:30.132Z,17.47
2022-10-22T00:48:02.686Z,17.42
2022-10-22T00:50:35.415Z,17.50
2022-10-22T00:53:05.406Z,17.41
2022-10-22T00:55:34.205Z,17.37
2022-10-22T00:58:05.382Z,17.37
2022-10-22T01:00:33.383Z,17.37
2022-10-22T01:03:02.813Z,17.17
2022-10-22T01:05:40.401Z,17.29
2022-10-22T01:10:55.504Z,17.30
2022-10-22T01:13:32.995Z,17.19
2022-10-22T01:16:09.710Z,17.26
2022-10-22T01:18:48.879Z,17.28
2022-10-22T01:21:26.244Z,17.15
2022-10-22T01:24:10.058Z,17.19
2022-10-22T01:26:53.095Z,17.08
2022-10-22T01:29:34.659Z,17.09
2022-10-22T01:32:06.220Z,17.27
2022-10-22T01:34:35.507Z,17.15
2022-10-22T01:37:04.623Z,17.18
2022-10-22T01:39:33.288Z,17.21
2022-10-22T01:42:01.104Z,17.06
2022-10-22T01:44:32.054Z,17.18
2022-10-22T01:47:13.984Z,17.23
2022-10-22T01:50:03.823Z,17.16
2022-10-22T01:52:47.656Z,17.22
2022-10-22T01:55:26.321Z,17.28
2022-10-22T01:58:09.102Z,17.23
2022-10-22T02:00:41.158Z,17.21
2022-10-22T02:03:15.643Z,17.17
2022-10-22T02:05:48.575Z,17.03
2022-10-22T02:08:20.335Z,17.09
2022-10-22T02:10:49.637Z,17.18
2022-10-22T02:13:22.268Z,17.18
2022-10-22T02:15:53.532Z,17.17
2022-10-22T02:18:24.799Z,17.25
2022-10-22T02:20:54.435Z,17.19
2022-10-22T02:23:23.217Z,17.20
2022-10-22T02:25:58.481Z,17.18
2022-10-22T02:28:34.961Z,17.12
2022-10-22T02:31:09.343Z,17.03
2022-10-22T02:33:43.418Z,17.01
2022-10-22T02:36:12.678Z,17.14
2022-10-22T02:38:43.170Z,17.12
2022-10-22T02:41:11.523Z,17.05
2022-10-22T02:43:43.819Z,17.08
2022-10-22T02:46:13.369Z,17.11
2022-10-22T02:48:41.250Z,16.90
2022-10-22T02:51:09.070Z,16.79
2022-10-22T02:53:36.932Z,16.93
2022-10-22T02:56:04.898Z,16.94
2022-10-22T02:58:32.755Z,16.87
2022-10-22T03:01:00.636Z,16.98
2022-10-22T03:03:29.852Z,17.05
2022-10-22T03:05:57.671Z,17.00
2022-10-22T03:08:25.541Z,16.90
2022-10-22T03:10:53.405Z,17.00
2022-10-22T03:13:21.306Z,16.99
2022-10-22T03:15:50.343Z,17.07
2022-10-22T03:18:18.542Z,16.88
2022-10-22T03:20:47.712Z,17.00
2022-10-22T03:23:17.990Z,17.05
2022-10-22T03:25:48.136Z,17.06
2022-10-22T03:28:18.304Z,16.98
2022-10-22T03:30:46.150Z,17.01
2022-10-22T03:33:14.021Z,16.93
2022-10-22T03:35:46.195Z,17.02
2022-10-22T03:38:16.048Z,17.04
2022-10-22T03:40:45.230Z,17.02
2022-10-22T03:43:13.563Z,17.04
2022-10-22T03:45:41.534Z,16.92
2022-10-22T03:48:09.425Z,16.99
2022-10-22T03:50:37.369Z,16.97
2022-10-22T03:53:07.120Z,16.93
2022-10-22T03:55:36.289Z,16.99
2022-10-22T03:58:04.123Z,17.00
2022-10-22T04:00:31.956Z,16.81
2022-10-22T04:02:59.784Z,16.87
2022-10-22T04:05:27.656Z,16.92
2022-10-22T04:07:55.506Z,16.96
2022-10-22T04:10:23.300Z,16.89
2022-10-22T04:12:52.552Z,16.85
2022-10-22T04:15:20.389Z,16.79
2022-10-22T04:17:48.270Z,16.92
2022-10-22T04:20:16.122Z,17.00
2022-10-22T04:22:43.938Z,16.95
2022-10-22T04:25:11.783Z,16.86
2022-10-22T04:27:39.876Z,16.89
2022-10-22T04:30:10.713Z,16.89
2022-10-22T04:32:38.581Z,16.75
2022-10-22T04:35:07.030Z,16.78
2022-10-22T04:37:35.303Z,16.81
2022-10-22T04:40:03.139Z,16.81
2022-10-22T04:42:31.009Z,16.90
2022-10-22T04:44:58.844Z,16.94
2022-10-22T04:47:28.093Z,17.01
2022-10-22T04:49:55.938Z,16.92
2022-10-22T04:52:23.783Z,16.74
2022-10-22T04:54:51.627Z,16.69
2022-10-22T04:57:19.433Z,16.64
2022-10-22T04:59:47.313Z,16.74
2022-10-22T05:02:15.132Z,16.73
2022-10-22T05:04:46.262Z,16.65
2022-10-22T05:07:14.120Z,16.61
2022-10-22T05:09:42.213Z,16.68
2022-10-22T05:12:10.032Z,16.67
2022-10-22T05:14:40.292Z,16.69
2022-10-22T05:17:10.523Z,16.69
2022-10-22T05:19:38.341Z,16.60
2022-10-22T05:22:07.568Z,16.67
2022-10-22T05:24:37.123Z,16.70
2022-10-22T05:27:05.796Z,16.67
2022-10-22T05:29:33.899Z,16.62
2022-10-22T05:32:01.831Z,16.55
2022-10-22T05:34:29.687Z,16.60
2022-10-22T05:36:57.587Z,16.57
2022-10-22T05:39:26.926Z,16.62
2022-10-22T05:41:54.929Z,16.70
2022-10-22T05:44:22.802Z,16.65
2022-10-22T05:46:50.755Z,16.71
2022-10-22T05:49:18.643Z,16.75
2022-10-22T05:51:46.814Z,16.77
2022-10-22T05:54:18.483Z,16.74
2022-10-22T05:56:47.864Z,16.68
2022-10-22T05:59:15.800Z,16.57
2022-10-22T06:01:43.663Z,16.59
2022-10-22T06:04:12.917Z,16.63
2022-10-22T06:06:45.310Z,16.65
2022-10-22T06:09:18.424Z,16.57
2022-10-22T06:11:48.832Z,16.61
2022-10-22T06:14:17.491Z,16.59
2022-10-22T06:16:45.451Z,16.63
2022-10-22T06:19:15.035Z,16.53
2022-10-22T06:21:43.167Z,16.57
2022-10-22T06:24:12.209Z,16.53
2022-10-22T06:26:40.196Z,16.61
2022-10-22T06:29:09.772Z,16.68
2022-10-22T06:31:37.929Z,16.60
2022-10-22T06:34:06.678Z,16.74
2022-10-22T06:36:34.947Z,16.73
2022-10-22T06:39:02.958Z,16.79
2022-10-22T06:41:30.835Z,16.89
2022-10-22T06:44:00.051Z,16.72
2022-10-22T06:46:29.976Z,16.70
2022-10-22T06:48:59.811Z,16.81
2022-10-22T06:51:29.028Z,16.76
2022-10-22T06:53:58.104Z,16.85
2022-10-22T06:56:27.930Z,16.85
2022-10-22T06:58:57.529Z,16.99
2022-10-22T07:01:27.371Z,16.85
2022-10-22T07:03:56.647Z,16.98
2022-10-22T07:06:25.803Z,17.08
2022-10-22T07:08:55.243Z,16.98
2022-10-22T07:11:24.961Z,17.07
2022-10-22T07:13:55.287Z,16.99
2022-10-22T07:16:28.040Z,17.04
2022-10-22T07:19:01.670Z,16.93
2022-10-22T07:21:29.710Z,17.10
2022-10-22T07:23:57.894Z,17.15
2022-10-22T07:26:28.159Z,17.02
2022-10-22T07:28:56.201Z,17.00
2022-10-22T07:31:24.588Z,17.22
2022-10-22T07:33:52.655Z,17.13
2022-10-22T07:36:21.943Z,17.19
2022-10-22T07:38:54.310Z,17.44
2022-10-22T07:41:23.611Z,17.42
2022-10-22T07:43:51.888Z,17.49
2022-10-22T07:46:20.016Z,17.46
2022-10-22T07:48:47.903Z,17.37
2022-10-22T07:51:16.289Z,17.57
2022-10-22T07:53:45.536Z,17.52
2022-10-22T07:56:13.927Z,17.62
2022-10-22T07:58:42.208Z,17.73
2022-10-22T08:01:10.490Z,17.60
2022-10-22T08:03:38.424Z,17.47
2022-10-22T08:06:06.939Z,17.57
2022-10-22T08:08:34.868Z,17.62
2022-10-22T08:11:04.219Z,17.65
2022-10-22T08:13:32.372Z,17.70
2022-10-22T08:16:01.755Z,17.64
2022-10-22T08:18:30.349Z,17.57
2022-10-22T08:20:58.526Z,17.66
2022-10-22T08:23:28.674Z,17.63
2022-10-22T08:25:57.923Z,17.66
2022-10-22T08:28:28.721Z,17.60
2022-10-22T08:30:56.661Z,17.67
2022-10-22T08:33:24.518Z,17.54
2022-10-22T08:35:53.083Z,17.61
2022-10-22T08:38:21.604Z,17.59
2022-10-22T08:40:52.674Z,17.54
2022-10-22T08:43:47.412Z,17.73
2022-10-22T08:46:33.992Z,17.63
2022-10-22T08:49:04.425Z,17.83
2022-10-22T08:51:35.452Z,17.87
2022-10-22T08:54:24.311Z,17.96
2022-10-22T08:57:02.547Z,18.04
2022-10-22T08:59:38.769Z,18.00
2022-10-22T09:02:23.855Z,17.98
2022-10-22T09:04:58.204Z,18.10
2022-10-22T09:07:26.308Z,18.09
2022-10-22T09:09:58.355Z,18.01
2022-10-22T09:12:28.151Z,17.92
2022-10-22T09:14:57.401Z,17.92
2022-10-22T09:17:35.315Z,18.03
2022-10-22T09:20:12.932Z,18.11
2022-10-22T09:22:47.828Z,18.25
2022-10-22T09:25:21.332Z,18.42
2022-10-22T09:27:50.642Z,18.35
2022-10-22T09:30:21.975Z,18.38
2022-10-22T09:32:53.093Z,18.32
2022-10-22T09:35:25.164Z,18.42
2022-10-22T09:37:55.396Z,18.55
2022-10-22T09:40:24.722Z,18.71
2022-10-22T09:42:52.650Z,18.80
2022-10-22T09:45:25.668Z,18.83
2022-10-22T09:48:12.746Z,18.69
2022-10-22T09:50:45.259Z,18.87
2022-10-22T09:53:19.018Z,18.97
2022-10-22T09:55:52.727Z,18.83
2022-10-22T09:58:21.021Z,18.73
2022-10-22T10:00:54.613Z,18.80
2022-10-22T10:03:25.404Z,18.74
2022-10-22T10:05:57.351Z,18.61
2022-10-22T10:08:27.175Z,18.70
2022-10-22T10:11:00.489Z,18.71
2022-10-22T10:13:38.224Z,18.68
2022-10-22T10:16:14.694Z,18.59
2022-10-22T10:18:57.327Z,18.63
2022-10-22T10:21:36.028Z,18.55
2022-10-22T10:24:13.043Z,18.64
2022-10-22T10:26:47.660Z,18.77
2022-10-22T10:29:29.862Z,18.97
2022-10-22T10:32:11.140Z,18.81
2022-10-22T10:34:47.327Z,18.91
2022-10-22T10:37:22.915Z,19.06
2022-10-22T10:40:11.280Z,19.18
2022-10-22T10:42:45.054Z,19.06
2022-10-22T10:45:21.258Z,19.08
2022-10-22T10:48:24.966Z,18.99
2022-10-22T10:51:04.579Z,18.87
2022-10-22T10:53:47.682Z,19.00
2022-10-22T10:56:29.711Z,19.12
2022-10-22T10:59:08.467Z,19.32
2022-10-22T11:01:41.652Z,19.27
2022-10-22T11:04:42.966Z,19.70
2022-10-22T11:07:23.270Z,19.63
2022-10-22T11:10:09.883Z,19.68
2022-10-22T11:12:42.851Z,19.96
2022-10-22T11:15:17.685Z,19.77
2022-10-22T11:17:48.517Z,20.23
2022-10-22T11:20:21.244Z,20.17
2022-10-22T11:23:17.445Z,20.27
2022-10-22T11:25:45.576Z,20.41
2022-10-22T11:28:17.965Z,20.71
2022-10-22T11:30:50.671Z,20.93
2022-10-22T11:33:22.631Z,21.35
2022-10-22T11:35:53.809Z,21.54
2022-10-22T11:38:26.266Z,21.54
2022-10-22T11:40:59.934Z,22.01
2022-10-22T11:43:30.646Z,22.17
2022-10-22T11:46:03.749Z,22.24
2022-10-22T11:48:38.097Z,22.20
2022-10-22T11:51:34.075Z,22.36
2022-10-22T11:54:04.600Z,22.44
2022-10-22T11:56:38.470Z,22.57
2022-10-22T11:59:30.072Z,22.65
2022-10-22T12:01:57.932Z,22.36
2022-10-22T12:04:41.346Z,22.62
2022-10-22T12:07:34.956Z,22.58
2022-10-22T12:10:14.968Z,22.36
2022-10-22T12:12:45.482Z,22.12
2022-10-22T12:15:25.288Z,22.22
2022-10-22T12:18:00.434Z,22.02
2022-10-22T12:20:29.533Z,21.84
2022-10-22T12:22:59.885Z,21.57
2022-10-22T12:25:35.739Z,21.77
2022-10-22T12:28:03.847Z,21.50
2022-10-22T12:30:34.732Z,21.51
2022-10-22T12:33:04.951Z,21.81
2022-10-22T12:35:35.628Z,21.54
2022-10-22T12:38:13.894Z,21.72
2022-10-22T12:40:45.966Z,21.43
2022-10-22T12:43:18.614Z,21.41
2022-10-22T12:45:48.507Z,21.30
2022-10-22T12:48:19.800Z,21.45
2022-10-22T12:50:50.582Z,21.41
2022-10-22T12:53:23.532Z,21.31
2022-10-22T12:55:53.412Z,21.42
2022-10-22T12:58:26.720Z,21.52
2022-10-22T13:00:57.759Z,21.42
2022-10-22T13:03:29.454Z,21.30
2022-10-22T13:05:57.462Z,21.52
2022-10-22T13:08:29.144Z,21.43
2022-10-22T13:10:57.028Z,21.46
2022-10-22T13:13:35.435Z,21.45
2022-10-22T13:16:18.443Z,21.07
2022-10-22T13:18:47.814Z,21.20
2022-10-22T13:21:26.359Z,21.13
2022-10-22T13:23:58.560Z,21.29
2022-10-22T13:26:33.145Z,21.27
2022-10-22T13:29:02.354Z,21.36
2022-10-22T13:31:33.559Z,21.43
2022-10-22T13:34:09.786Z,21.20
2022-10-22T13:36:39.907Z,21.08
2022-10-22T13:39:18.117Z,21.00
2022-10-22T13:41:45.995Z,20.91
2022-10-22T13:44:13.820Z,21.10
2022-10-22T13:46:42.906Z,21.02
2022-10-22T13:49:16.291Z,21.16
2022-10-22T13:51:44.642Z,21.29
2022-10-22T13:54:17.867Z,21.13
2022-10-22T13:56:45.506Z,21.39
2022-10-22T13:59:14.202Z,21.12
2022-10-22T14:01:43.036Z,21.21
2022-10-22T14:04:14.759Z,21.13
2022-10-22T14:06:42.589Z,21.03
2022-10-22T14:09:16.659Z,21.22
2022-10-22T14:11:44.554Z,21.08
2022-10-22T14:14:14.298Z,21.03
2022-10-22T14:16:42.432Z,21.03
2022-10-22T14:19:15.470Z,21.02
2022-10-22T14:21:43.387Z,21.11
2022-10-22T14:24:13.232Z,21.23
2022-10-22T14:26:42.960Z,21.17
2022-10-22T14:29:11.721Z,21.00
2022-10-22T14:34:13.416Z,20.95
2022-10-22T14:36:43.564Z,21.07
2022-10-22T14:39:11.571Z,21.06
2022-10-22T14:41:39.633Z,21.14
2022-10-22T14:44:12.551Z,21.06
2022-10-22T14:46:42.588Z,21.12
2022-10-22T14:49:10.502Z,21.11
2022-10-22T14:51:38.327Z,21.00
2022-10-22T14:54:06.182Z,21.11
2022-10-22T14:56:34.043Z,20.96
2022-10-22T14:59:01.965Z,21.08
2022-10-22T15:01:31.254Z,21.06
2022-10-22T15:03:59.058Z,21.03
2022-10-22T15:06:26.887Z,20.97
2022-10-22T15:08:54.766Z,20.67
2022-10-22T15:11:22.850Z,20.74
2022-10-22T15:13:50.678Z,20.83
2022-10-22T15:16:19.439Z,20.86
2022-10-22T15:18:48.597Z,20.82
2022-10-22T15:21:19.440Z,20.86
2022-10-22T15:23:47.661Z,20.92
2022-10-22T15:26:15.780Z,20.78
2022-10-22T15:28:44.147Z,20.68
2022-10-22T15:31:13.956Z,20.68
2022-10-22T15:33:42.930Z,20.62
2022-10-22T15:36:14.299Z,20.59
2022-10-22T15:38:42.164Z,20.63
2022-10-22T15:41:12.393Z,20.43
2022-10-22T15:43:40.317Z,20.50
2022-10-22T15:46:13.909Z,20.39
2022-10-22T15:48:42.269Z,20.43
2022-10-22T15:51:13.666Z,20.26
2022-10-22T15:53:42.293Z,20.22
2022-10-22T15:56:11.666Z,20.22
2022-10-22T15:58:39.485Z,20.18
2022-10-22T16:01:08.794Z,20.00
2022-10-22T16:03:37.000Z,20.02
2022-10-22T16:06:05.419Z,19.80
2022-10-22T16:08:35.272Z,19.94
2022-10-22T16:11:03.299Z,19.82
2022-10-22T16:13:31.354Z,19.83
2022-10-22T16:15:59.165Z,19.79
2022-10-22T16:18:27.047Z,19.68
2022-10-22T16:20:54.900Z,19.74
2022-10-22T16:23:22.739Z,19.73
2022-10-22T16:25:51.897Z,19.68
2022-10-22T16:28:19.744Z,19.56
2022-10-22T16:30:47.578Z,19.30
2022-10-22T16:33:15.459Z,19.42
2022-10-22T16:35:43.533Z,19.48
2022-10-22T16:38:12.524Z,19.42
2022-10-22T16:40:40.356Z,19.34
2022-10-22T16:43:09.551Z,19.29
2022-10-22T16:45:37.446Z,19.28
2022-10-22T16:48:05.646Z,19.20
2022-10-22T16:50:33.499Z,19.18
2022-10-22T16:53:01.305Z,19.15
2022-10-22T16:55:29.142Z,19.18
2022-10-22T16:57:57.083Z,19.11
2022-10-22T17:00:26.300Z,19.02
2022-10-22T17:02:54.297Z,19.01
2022-10-22T17:05:22.766Z,19.01
2022-10-22T17:07:51.492Z,18.85
2022-10-22T17:10:20.755Z,18.90
2022-10-22T17:12:49.610Z,18.90
2022-10-22T17:15:17.544Z,18.72
2022-10-22T17:17:50.863Z,18.79
2022-10-22T17:20:19.913Z,18.93
2022-10-22T17:22:49.439Z,19.00
2022-10-22T17:25:21.931Z,19.03
2022-10-22T17:27:50.170Z,19.01
2022-10-22T17:30:23.473Z,19.05
2022-10-22T17:32:55.853Z,18.99
2022-10-22T17:35:23.691Z,18.91
2022-10-22T17:37:51.591Z,18.96
2022-10-22T17:40:19.550Z,18.93
2022-10-22T17:42:49.246Z,18.96
2022-10-22T17:45:17.281Z,19.02
2022-10-22T17:47:45.117Z,18.88
2022-10-22T17:50:14.400Z,18.86
2022-10-22T17:52:42.897Z,18.80
2022-10-22T17:55:13.146Z,18.95
2022-10-22T17:57:41.014Z,18.95
2022-10-22T18:00:10.243Z,18.90
2022-10-22T18:02:38.104Z,19.07
2022-10-22T18:05:06.680Z,18.97
2022-10-22T18:07:35.899Z,19.05
2022-10-22T18:10:03.989Z,19.09
2022-10-22T18:12:31.776Z,18.84
2022-10-22T18:14:59.660Z,18.75
2022-10-22T18:17:27.581Z,19.00
2022-10-22T18:19:55.454Z,19.02
2022-10-22T18:22:23.330Z,19.10
2022-10-22T18:24:53.025Z,19.03
2022-10-22T18:27:20.872Z,19.00
2022-10-22T18:29:50.415Z,19.05
2022-10-22T18:32:18.272Z,18.99
2022-10-22T18:34:46.180Z,18.87
2022-10-22T18:37:13.987Z,18.96
2022-10-22T18:39:41.813Z,18.98
2022-10-22T18:42:11.075Z,18.88
2022-10-22T18:44:38.978Z,18.88
2022-10-22T18:47:08.610Z,18.98
2022-10-22T18:49:36.415Z,18.86
2022-10-22T18:52:04.654Z,18.86
2022-10-22T18:54:32.493Z,18.87
2022-10-22T18:57:02.841Z,18.95
2022-10-22T18:59:32.640Z,18.92
2022-10-22T19:02:00.520Z,18.91
2022-10-22T19:04:33.232Z,18.84
2022-10-22T19:07:01.249Z,18.80
2022-10-22T19:09:29.135Z,18.82
2022-10-22T19:11:57.037Z,18.70
2022-10-22T19:14:25.055Z,18.75
2022-10-22T19:16:54.295Z,18.70
2022-10-22T19:19:22.629Z,18.57
2022-10-22T19:21:50.758Z,18.56
2022-10-22T19:24:20.774Z,18.44
2022-10-22T19:26:49.625Z,18.46
2022-10-22T19:29:19.357Z,18.39
2022-10-22T19:31:47.596Z,18.46
2022-10-22T19:34:16.809Z,18.24
2022-10-22T19:36:44.635Z,18.24
2022-10-22T19:39:16.226Z,18.32
2022-10-22T19:41:44.761Z,18.25
2022-10-22T19:44:12.631Z,18.35
2022-10-22T19:46:40.462Z,18.29
2022-10-22T19:49:08.334Z,18.28
2022-10-22T19:51:37.857Z,18.19
2022-10-22T19:54:08.871Z,18.25
2022-10-22T19:56:37.669Z,18.28
2022-10-22T19:59:06.529Z,18.35
2022-10-22T20:01:34.687Z,18.35
2022-10-22T20:04:02.580Z,18.35
2022-10-22T20:06:30.950Z,18.33
2022-10-22T20:09:00.448Z,18.38
2022-10-22T20:11:30.074Z,18.41
2022-10-22T20:13:58.630Z,18.20
2022-10-22T20:16:29.937Z,17.99
2022-10-22T20:19:01.052Z,18.14
2022-10-22T20:21:28.880Z,18.14
2022-10-22T20:23:57.418Z,18.27
2022-10-22T20:26:28.243Z,18.05
2022-10-22T20:28:56.618Z,18.09
2022-10-22T20:31:27.828Z,18.22
2022-10-22T20:33:57.471Z,18.24
2022-10-22T20:36:26.420Z,18.21
2022-10-22T20:38:54.268Z,18.34
2022-10-22T20:41:23.869Z,18.35
2022-10-22T20:43:53.532Z,18.31
2022-10-22T20:46:23.991Z,18.33
2022-10-22T20:48:52.575Z,18.20
2022-10-22T20:51:21.031Z,18.32
2022-10-22T20:53:49.013Z,18.25
2022-10-22T20:56:17.542Z,18.29
2022-10-22T20:58:48.839Z,18.44
2022-10-22T21:01:21.793Z,18.47
2022-10-22T21:03:49.965Z,18.40
2022-10-22T21:06:17.903Z,18.22
2022-10-22T21:08:45.873Z,18.31
2022-10-22T21:11:13.675Z,18.42
2022-10-22T21:13:41.553Z,18.36
2022-10-22T21:16:10.716Z,18.35
2022-10-22T21:18:40.002Z,18.21
2022-10-22T21:21:08.616Z,18.20
2022-10-22T21:23:37.378Z,18.16
2022-10-22T21:26:05.816Z,18.32
2022-10-22T21:28:35.716Z,18.24
2022-10-22T21:31:04.690Z,18.36
2022-10-22T21:33:32.811Z,18.17
2022-10-22T21:36:02.017Z,18.23
2022-10-22T21:38:29.852Z,18.32
2022-10-22T21:40:57.675Z,18.40
2022-10-22T21:43:25.630Z,18.33
2022-10-22T21:46:05.411Z,18.40
2022-10-22T21:48:35.952Z,18.37
2022-10-22T21:51:09.156Z,18.38
2022-10-22T21:53:37.180Z,18.20
2022-10-22T21:56:05.934Z,18.25
2022-10-22T21:58:35.192Z,18.11
2022-10-22T22:01:03.094Z,18.32
2022-10-22T22:03:31.049Z,18.34
2022-10-22T22:05:59.776Z,18.20
2022-10-22T22:08:29.213Z,18.10
2022-10-22T22:11:03.092Z,18.28
2022-10-22T22:13:33.998Z,18.17
2022-10-22T22:16:02.878Z,18.20
2022-10-22T22:18:31.185Z,18.11
2022-10-22T22:20:59.734Z,18.20
2022-10-22T22:23:28.966Z,18.19
2022-10-22T22:25:59.656Z,18.11
2022-10-22T22:28:27.624Z,18.07
2022-10-22T22:30:55.518Z,17.98
2022-10-22T22:33:23.398Z,18.02
2022-10-22T22:35:51.432Z,17.87
2022-10-22T22:38:19.352Z,17.84
2022-10-22T22:40:48.563Z,17.67
2022-10-22T22:43:16.415Z,17.74
2022-10-22T22:45:44.359Z,17.68
2022-10-22T22:48:12.217Z,17.61
2022-10-22T22:50:40.048Z,17.64
2022-10-22T22:53:08.008Z,17.59
2022-10-22T22:55:36.140Z,17.42
2022-10-22T22:58:05.386Z,17.46
2022-10-22T23:00:33.267Z,17.35
2022-10-22T23:03:01.167Z,17.54
2022-10-22T23:05:28.985Z,17.35
2022-10-22T23:07:57.298Z,17.49
2022-10-22T23:10:25.087Z,17.41
2022-10-22T23:12:52.928Z,17.45
2022-10-22T23:15:22.088Z,17.36
2022-10-22T23:17:49.891Z,17.38
2022-10-22T23:20:17.920Z,17.47
2022-10-22T23:22:45.782Z,17.31
2022-10-22T23:25:13.582Z,17.29
2022-10-22T23:27:41.635Z,17.37
2022-10-22T23:30:10.857Z,17.44
2022-10-22T23:32:40.119Z,17.51
2022-10-22T23:35:08.541Z,17.30
2022-10-22T23:37:36.331Z,17.26
2022-10-22T23:40:04.514Z,17.13
2022-10-22T23:42:32.383Z,17.01
2022-10-22T23:45:00.234Z,17.17
2022-10-22T23:47:28.188Z,17.17
2022-10-22T23:49:57.348Z,17.08
2022-10-22T23:52:25.275Z,17.03
2022-10-22T23:54:53.091Z,17.10
2022-10-22T23:57:20.933Z,17.12
2022-10-22T23:59:48.728Z,17.15
